createdAt,value
2023-01-10T00:02:25.170Z,4.20
2023-01-10T00:04:55.330Z,4.63
2023-01-10T00:07:24.532Z,5.10
2023-01-10T00:09:55.003Z,4.93
2023-01-10T00:12:40.945Z,5.20
2023-01-10T00:15:10.744Z,4.60
2023-01-10T00:17:46.241Z,4.70
2023-01-10T00:20:25.766Z,4.33
2023-01-10T00:22:54.459Z,4.20
2023-01-10T00:25:23.381Z,4.40
2023-01-10T00:27:58.357Z,4.73
2023-01-10T00:30:28.793Z,4.47
2023-01-10T00:32:58.868Z,4.33
2023-01-10T00:35:28.989Z,4.53
2023-01-10T00:38:03.433Z,4.60
2023-01-10T00:40:32.351Z,4.13
2023-01-10T00:43:18.751Z,4.60
2023-01-10T00:45:47.187Z,4.40
2023-01-10T00:48:18.946Z,4.50
2023-01-10T00:50:49.566Z,4.37
2023-01-10T00:53:18.607Z,4.37
2023-01-10T00:55:47.562Z,4.27
2023-01-10T00:58:16.890Z,3.93
2023-01-10T01:00:47.113Z,4.00
2023-01-10T01:03:21.743Z,4.13
2023-01-10T01:05:53.773Z,4.07
2023-01-10T01:08:27.786Z,4.80
2023-01-10T01:10:56.339Z,3.77
2023-01-10T01:13:27.196Z,4.50
2023-01-10T01:16:01.861Z,3.87
2023-01-10T01:18:30.730Z,4.17
2023-01-10T01:21:08.413Z,3.77
2023-01-10T01:23:38.739Z,3.70
2023-01-10T01:26:08.621Z,3.37
2023-01-10T01:28:38.541Z,3.70
2023-01-10T01:31:12.135Z,3.23
2023-01-10T01:33:41.019Z,3.53
2023-01-10T01:36:13.552Z,3.33
2023-01-10T01:38:45.426Z,3.30
2023-01-10T01:41:34.179Z,3.90
2023-01-10T01:44:22.315Z,3.47
2023-01-10T01:46:57.572Z,3.83
2023-01-10T01:49:27.690Z,3.27
2023-01-10T01:52:05.275Z,3.07
2023-01-10T01:54:34.423Z,3.07
2023-01-10T01:57:11.006Z,3.13
2023-01-10T01:59:44.443Z,3.67
2023-01-10T02:02:16.971Z,3.43
2023-01-10T02:04:53.101Z,3.30
2023-01-10T02:07:25.217Z,3.20
2023-01-10T02:09:58.515Z,2.60
2023-01-10T02:12:29.240Z,3.50
2023-01-10T02:14:58.959Z,2.90
2023-01-10T02:17:28.799Z,2.87
2023-01-10T02:20:04.915Z,2.70
2023-01-10T02:23:00.676Z,3.00
2023-01-10T02:25:55.311Z,2.97
2023-01-10T02:28:53.834Z,2.77
2023-01-10T03:05:54.575Z,3.10
2023-01-10T03:08:34.459Z,3.30
2023-01-10T03:11:05.158Z,2.80
2023-01-10T03:13:40.406Z,2.80
2023-01-10T03:16:11.820Z,2.97
2023-01-10T03:18:45.009Z,2.90
2023-01-10T03:21:16.220Z,2.83
2023-01-10T03:23:48.008Z,2.83
2023-01-10T03:26:19.435Z,2.70
2023-01-10T03:28:54.106Z,2.80
2023-01-10T03:31:27.836Z,2.90
2023-01-10T03:33:56.663Z,2.90
2023-01-10T03:36:33.472Z,2.87
2023-01-10T03:39:11.526Z,3.00
2023-01-10T03:41:46.110Z,3.27
2023-01-10T03:44:40.026Z,3.00
2023-01-10T03:47:15.553Z,2.93
2023-01-10T03:49:48.280Z,3.23
2023-01-10T03:52:20.495Z,2.87
2023-01-10T03:54:56.072Z,3.27
2023-01-10T03:57:26.162Z,2.77
2023-01-10T03:59:56.914Z,3.10
2023-01-10T04:02:28.087Z,3.20
2023-01-10T04:04:56.464Z,3.10
2023-01-10T04:07:30.056Z,3.87
2023-01-10T04:09:59.133Z,3.10
2023-01-10T04:12:27.945Z,3.47
2023-01-10T04:14:57.867Z,3.57
2023-01-10T04:17:26.130Z,3.00
2023-01-10T04:19:54.751Z,3.27
2023-01-10T04:22:23.242Z,3.10
2023-01-10T04:24:54.785Z,3.63
2023-01-10T04:27:25.646Z,3.10
2023-01-10T04:29:56.860Z,3.13
2023-01-10T04:32:25.582Z,3.30
2023-01-10T04:34:56.492Z,3.30
2023-01-10T04:37:26.208Z,3.23
2023-01-10T04:39:56.221Z,3.33
2023-01-10T04:42:25.268Z,3.10
2023-01-10T04:44:55.536Z,2.93
2023-01-10T04:47:24.303Z,2.90
2023-01-10T04:49:54.866Z,3.00
2023-01-10T04:52:26.713Z,3.03
2023-01-10T04:55:17.469Z,3.00
2023-01-10T04:57:46.667Z,2.90
2023-01-10T05:00:19.699Z,2.80
2023-01-10T05:02:58.529Z,2.87
2023-01-10T05:05:28.882Z,3.10
2023-01-10T05:08:04.797Z,3.00
2023-01-10T05:10:39.353Z,2.93
2023-01-10T05:13:14.881Z,3.23
2023-01-10T05:15:43.930Z,2.77
2023-01-10T05:18:19.109Z,3.10
2023-01-10T05:20:47.709Z,2.77
2023-01-10T05:26:08.820Z,2.90
2023-01-10T05:39:18.056Z,3.97
2023-01-10T05:41:51.959Z,3.53
2023-01-10T05:44:21.275Z,3.33
2023-01-10T05:46:50.975Z,3.60
2023-01-10T05:49:20.792Z,3.67
2023-01-10T05:51:55.239Z,3.57
2023-01-10T05:54:28.542Z,3.97
2023-01-10T05:57:00.194Z,3.77
2023-01-10T05:59:37.956Z,3.30
2023-01-10T06:02:11.008Z,3.87
2023-01-10T06:04:41.594Z,3.47
2023-01-10T06:07:11.482Z,3.40
2023-01-10T06:09:40.074Z,3.43
2023-01-10T06:12:11.626Z,3.90
2023-01-10T06:14:43.810Z,3.20
2023-01-10T06:17:25.429Z,2.70
2023-01-10T06:19:54.992Z,2.90
2023-01-10T06:22:27.059Z,3.30
2023-01-10T06:24:57.026Z,3.50
2023-01-10T06:27:32.428Z,3.23
2023-01-10T06:30:14.013Z,3.30
2023-01-10T06:32:47.449Z,3.90
2023-01-10T06:35:19.262Z,3.00
2023-01-10T06:37:55.483Z,2.90
2023-01-10T06:40:25.744Z,3.63
2023-01-10T06:42:56.369Z,3.43
2023-01-10T06:45:27.101Z,3.10
2023-01-10T06:47:56.079Z,3.80
2023-01-10T06:50:25.255Z,3.70
2023-01-10T06:53:00.666Z,3.43
2023-01-10T06:55:30.503Z,3.57
2023-01-10T06:58:02.585Z,3.53
2023-01-10T07:00:33.363Z,3.60
2023-01-10T07:03:04.073Z,3.20
2023-01-10T07:05:41.356Z,3.67
2023-01-10T07:08:10.100Z,3.27
2023-01-10T07:10:58.906Z,3.17
2023-01-10T07:13:29.090Z,3.10
2023-01-10T07:16:04.802Z,2.83
2023-01-10T07:18:33.655Z,3.00
2023-01-10T07:21:20.367Z,3.13
2023-01-10T07:23:52.549Z,2.43
2023-01-10T07:26:21.835Z,3.10
2023-01-10T07:28:52.985Z,2.70
2023-01-10T07:31:23.971Z,3.23
2023-01-10T07:34:01.016Z,3.03
2023-01-10T07:36:29.538Z,3.10
2023-01-10T07:38:59.201Z,2.77
2023-01-10T07:41:27.579Z,2.90
2023-01-10T07:43:59.126Z,2.90
2023-01-10T07:46:27.482Z,2.87
2023-01-10T07:49:00.241Z,2.83
2023-01-10T07:51:30.361Z,2.50
2023-01-10T07:54:01.945Z,2.57
2023-01-10T07:56:31.099Z,3.07
2023-01-10T07:59:01.722Z,2.80
2023-01-10T08:01:30.504Z,2.43
2023-01-10T08:04:02.794Z,2.57
2023-01-10T08:06:33.143Z,3.00
2023-01-10T08:09:10.049Z,2.67
2023-01-10T08:11:41.670Z,2.30
2023-01-10T08:14:12.078Z,2.60
2023-01-10T08:16:40.757Z,2.30
2023-01-10T08:19:09.604Z,2.53
2023-01-10T08:21:38.083Z,2.37
2023-01-10T08:24:07.665Z,2.80
2023-01-10T08:26:37.201Z,2.30
2023-01-10T08:29:05.938Z,2.30
2023-01-10T08:31:38.449Z,2.47
2023-01-10T08:34:15.749Z,2.50
2023-01-10T08:36:44.229Z,3.00
2023-01-10T08:39:14.358Z,2.57
2023-01-10T08:41:42.838Z,2.63
2023-01-10T08:44:13.714Z,2.63
2023-01-10T08:46:44.057Z,2.17
2023-01-10T08:49:18.565Z,2.67
2023-01-10T08:51:47.003Z,2.30
2023-01-10T08:54:17.985Z,2.93
2023-01-10T08:56:46.302Z,2.97
2023-01-10T08:59:14.938Z,2.40
2023-01-10T09:01:45.845Z,2.40
2023-01-10T09:04:17.747Z,2.10
2023-01-10T09:06:46.536Z,2.40
2023-01-10T09:09:15.072Z,2.40
2023-01-10T09:11:43.608Z,2.50
2023-01-10T09:14:11.928Z,2.53
2023-01-10T09:16:40.554Z,2.23
2023-01-10T09:19:10.388Z,1.83
2023-01-10T09:21:38.808Z,2.07
2023-01-10T09:24:07.950Z,2.10
2023-01-10T09:26:36.511Z,2.23
2023-01-10T09:29:09.023Z,2.10
2023-01-10T09:31:37.637Z,2.90
2023-01-10T09:34:06.459Z,2.20
2023-01-10T09:36:37.681Z,2.13
2023-01-10T09:39:07.107Z,2.20
2023-01-10T09:42:01.642Z,2.20
2023-01-10T09:44:43.178Z,2.10
2023-01-10T09:47:22.737Z,2.10
2023-01-10T09:50:02.714Z,2.10
2023-01-10T09:52:39.002Z,2.30
2023-01-10T09:55:20.573Z,1.77
2023-01-10T09:57:50.335Z,2.00
2023-01-10T10:00:25.735Z,2.20
2023-01-10T10:02:54.955Z,2.00
2023-01-10T10:05:25.553Z,2.00
2023-01-10T10:07:58.502Z,2.20
2023-01-10T10:10:40.565Z,2.03
2023-01-10T10:13:27.510Z,2.10
2023-01-10T10:16:07.519Z,2.00
2023-01-10T10:18:45.759Z,2.60
2023-01-10T10:21:22.307Z,2.33
2023-01-10T10:24:23.008Z,2.10
2023-01-10T10:27:01.772Z,2.07
2023-01-10T10:29:49.927Z,1.97
2023-01-10T10:32:37.911Z,2.10
2023-01-10T10:35:14.020Z,2.20
2023-01-10T10:37:47.769Z,1.70
2023-01-10T10:40:22.142Z,1.80
2023-01-10T10:42:55.435Z,1.80
2023-01-10T10:45:39.668Z,1.70
2023-01-10T10:48:16.468Z,2.20
2023-01-10T10:50:53.494Z,1.93
2023-01-10T10:53:21.805Z,1.97
2023-01-10T10:55:50.900Z,1.70
2023-01-10T10:58:23.118Z,2.10
2023-01-10T11:00:53.258Z,2.23
2023-01-10T11:03:30.298Z,1.70
2023-01-10T11:06:01.245Z,2.00
2023-01-10T11:08:40.246Z,1.87
2023-01-10T11:11:18.892Z,1.47
2023-01-10T11:13:55.840Z,1.70
2023-01-10T11:16:31.494Z,1.80
2023-01-10T11:19:27.273Z,1.53
2023-01-10T11:21:58.204Z,2.00
2023-01-10T11:24:35.246Z,1.80
2023-01-10T11:27:06.540Z,1.50
2023-01-10T11:29:47.341Z,1.90
2023-01-10T11:32:21.960Z,1.80
2023-01-10T11:34:54.819Z,1.70
2023-01-10T11:37:29.280Z,1.70
2023-01-10T11:40:26.174Z,1.90
2023-01-10T11:42:59.928Z,1.90
2023-01-10T11:45:54.631Z,1.63
2023-01-10T11:48:50.406Z,1.70
2023-01-10T11:51:24.898Z,1.77
2023-01-10T11:54:00.653Z,1.63
2023-01-10T11:56:33.807Z,1.60
2023-01-10T11:59:12.772Z,1.97
2023-01-10T12:01:49.363Z,2.00
2023-01-10T12:04:21.187Z,1.40
2023-01-10T12:06:52.521Z,1.53
2023-01-10T12:09:35.689Z,1.60
2023-01-10T12:12:05.870Z,1.40
2023-01-10T12:14:35.815Z,1.40
2023-01-10T12:17:05.760Z,1.50
2023-01-10T12:19:34.475Z,1.60
2023-01-10T12:22:09.540Z,1.40
2023-01-10T12:24:45.125Z,1.57
2023-01-10T12:27:20.199Z,1.93
2023-01-10T12:29:54.662Z,1.50
2023-01-10T12:32:34.297Z,1.50
2023-01-10T12:35:07.702Z,1.57
2023-01-10T12:37:45.496Z,1.20
2023-01-10T12:40:27.933Z,1.30
2023-01-10T12:43:17.801Z,1.70
2023-01-10T12:45:52.715Z,1.27
2023-01-10T12:48:32.235Z,1.20
2023-01-10T12:51:08.228Z,1.40
2023-01-10T12:53:41.027Z,1.40
2023-01-10T12:56:16.525Z,1.70
2023-01-10T12:58:53.519Z,1.73
2023-01-10T13:01:28.555Z,1.50
2023-01-10T13:04:06.314Z,1.47
2023-01-10T13:06:39.025Z,1.50
2023-01-10T13:09:10.747Z,1.37
2023-01-10T13:11:46.897Z,1.60
2023-01-10T13:14:20.187Z,1.50
2023-01-10T13:16:54.860Z,1.23
2023-01-10T13:19:29.373Z,1.37
2023-01-10T13:22:22.379Z,1.40
2023-01-10T13:25:01.107Z,1.33
2023-01-10T13:27:35.895Z,1.30
2023-01-10T13:30:09.409Z,1.43
2023-01-10T13:32:40.113Z,1.60
2023-01-10T13:35:16.487Z,1.30
2023-01-10T13:37:51.804Z,1.20
2023-01-10T13:40:28.698Z,1.77
2023-01-10T13:43:50.153Z,1.20
2023-01-10T13:46:50.189Z,1.37
2023-01-10T13:49:44.114Z,1.70
2023-01-10T13:52:40.272Z,1.57
2023-01-10T13:55:34.683Z,1.20
2023-01-10T13:59:00.880Z,1.50
2023-01-10T14:01:54.352Z,1.93
2023-01-10T14:04:25.155Z,1.43
2023-01-10T14:06:56.805Z,1.30
2023-01-10T14:09:46.034Z,1.00
2023-01-10T14:12:34.013Z,1.20
2023-01-10T14:15:06.709Z,1.70
2023-01-10T14:17:37.189Z,1.20
2023-01-10T14:20:20.478Z,1.70
2023-01-10T14:23:20.449Z,1.40
2023-01-10T14:25:55.008Z,1.20
2023-01-10T14:28:28.979Z,1.40
2023-01-10T14:31:04.574Z,1.80
2023-01-10T14:33:34.549Z,1.37
2023-01-10T14:36:06.211Z,1.37
2023-01-10T14:38:40.043Z,1.37
2023-01-10T14:41:18.102Z,1.80
2023-01-10T14:43:55.044Z,1.57
2023-01-10T14:46:30.155Z,1.80
2023-01-10T14:49:01.109Z,1.50
2023-01-10T14:51:30.635Z,1.83
2023-01-10T14:54:01.925Z,1.50
2023-01-10T14:56:39.255Z,1.50
2023-01-10T14:59:24.891Z,1.53
2023-01-10T15:01:55.927Z,1.63
2023-01-10T15:04:27.084Z,1.53
2023-01-10T15:06:58.309Z,1.50
2023-01-10T15:09:27.387Z,1.70
2023-01-10T15:12:01.556Z,2.47
2023-01-10T15:14:31.299Z,1.70
2023-01-10T15:17:03.083Z,1.80
2023-01-10T15:19:34.857Z,1.40
2023-01-10T15:22:17.334Z,1.60
2023-01-10T15:24:45.882Z,1.93
2023-01-10T15:27:17.108Z,1.70
2023-01-10T15:29:48.401Z,1.50
2023-01-10T15:32:25.632Z,1.67
2023-01-10T15:34:56.276Z,1.60
2023-01-10T15:37:34.288Z,1.60
2023-01-10T15:40:09.687Z,1.60
2023-01-10T15:43:01.762Z,2.70
2023-01-10T15:45:39.810Z,1.73
2023-01-10T15:48:28.249Z,1.50
2023-01-10T15:51:06.214Z,1.50
2023-01-10T15:54:06.869Z,1.53
2023-01-10T15:56:45.148Z,1.47
2023-01-10T15:59:29.507Z,1.60
2023-01-10T16:02:01.262Z,1.40
2023-01-10T16:04:31.370Z,1.43
2023-01-10T16:07:16.776Z,2.30
2023-01-10T16:09:51.667Z,1.70
2023-01-10T16:12:55.324Z,1.80
2023-01-10T16:15:26.931Z,1.70
2023-01-10T16:17:56.447Z,1.30
2023-01-10T16:20:45.939Z,2.20
2023-01-10T16:23:18.842Z,1.87
2023-01-10T16:25:49.762Z,1.63
2023-01-10T16:28:20.833Z,1.70
2023-01-10T16:30:52.308Z,1.70
2023-01-10T16:33:23.643Z,1.97
2023-01-10T16:35:58.161Z,2.20
2023-01-10T16:38:30.640Z,1.80
2023-01-10T16:41:24.727Z,1.70
2023-01-10T16:43:53.503Z,1.87
2023-01-10T16:46:23.768Z,1.60
2023-01-10T16:48:56.767Z,1.70
2023-01-10T16:51:28.632Z,1.80
2023-01-10T16:53:57.841Z,2.20
2023-01-10T16:56:28.349Z,2.30
2023-01-10T16:59:00.022Z,2.10
2023-01-10T17:01:32.265Z,1.80
2023-01-10T17:04:02.607Z,2.07
2023-01-10T17:06:32.244Z,2.10
2023-01-10T17:09:00.573Z,2.17
2023-01-10T17:11:33.127Z,1.83
2023-01-10T17:14:02.801Z,1.80
2023-01-10T17:16:33.248Z,1.67
2023-01-10T17:19:01.873Z,1.60
2023-01-10T17:21:30.417Z,2.23
2023-01-10T17:23:59.133Z,1.40
2023-01-10T17:26:29.738Z,1.77
2023-01-10T17:28:58.056Z,1.50
2023-01-10T17:31:26.756Z,1.90
2023-01-10T17:33:58.208Z,1.30
2023-01-10T17:36:30.094Z,1.40
2023-01-10T17:39:00.454Z,1.53
2023-01-10T17:41:31.794Z,1.90
2023-01-10T17:44:02.296Z,1.50
2023-01-10T17:46:30.735Z,1.60
2023-01-10T17:49:00.739Z,1.40
2023-01-10T17:51:29.428Z,1.50
2023-01-10T17:53:57.889Z,1.50
2023-01-10T17:56:26.621Z,1.97
2023-01-10T17:59:12.453Z,1.40
2023-01-10T18:01:42.405Z,1.30
2023-01-10T18:04:12.706Z,1.57
2023-01-10T18:06:42.086Z,1.20
2023-01-10T18:09:11.235Z,1.60
2023-01-10T18:11:40.187Z,1.60
2023-01-10T18:14:31.519Z,1.43
2023-01-10T18:17:00.556Z,1.43
2023-01-10T18:19:31.630Z,1.43
2023-01-10T18:22:02.409Z,1.80
2023-01-10T18:24:33.548Z,1.83
2023-01-10T18:27:02.371Z,1.40
2023-01-10T18:30:10.668Z,1.73
2023-01-10T18:32:43.969Z,1.67
2023-01-10T18:35:14.370Z,1.90
2023-01-10T18:37:43.072Z,1.47
2023-01-10T18:40:13.553Z,1.60
2023-01-10T18:42:44.533Z,1.40
2023-01-10T18:45:15.995Z,1.50
2023-01-10T18:47:47.328Z,1.77
2023-01-10T18:50:18.556Z,1.43
2023-01-10T18:52:47.729Z,1.60
2023-01-10T18:55:16.704Z,1.40
2023-01-10T18:57:45.489Z,1.90
2023-01-10T19:00:43.673Z,1.50
2023-01-10T19:03:10.350Z,1.80
2023-01-10T19:05:40.840Z,1.67
2023-01-10T19:08:09.884Z,1.77
2023-01-10T19:11:00.378Z,2.30
2023-01-10T19:13:30.233Z,1.83
2023-01-10T19:16:11.699Z,1.87
2023-01-10T19:18:40.501Z,2.17
2023-01-10T19:21:15.624Z,2.00
2023-01-10T19:23:46.531Z,1.83
2023-01-10T19:26:15.875Z,1.50
2023-01-10T19:28:48.387Z,1.93
2023-01-10T19:31:19.960Z,1.70
2023-01-10T19:33:50.229Z,1.80
2023-01-10T19:36:24.218Z,1.60
2023-01-10T19:39:02.251Z,1.97
2023-01-10T19:41:31.517Z,2.40
2023-01-10T19:44:03.760Z,1.57
2023-01-10T19:46:41.843Z,2.00
2023-01-10T19:49:11.885Z,1.73
2023-01-10T19:51:42.632Z,1.90
2023-01-10T19:54:12.390Z,1.63
2023-01-10T19:56:41.148Z,1.77
2023-01-10T19:59:09.705Z,1.77
2023-01-10T20:01:38.534Z,1.67
2023-01-10T20:04:07.896Z,1.73
2023-01-10T20:06:40.450Z,2.00
2023-01-10T20:09:13.588Z,1.70
2023-01-10T20:11:43.290Z,1.63
2023-01-10T20:14:15.186Z,1.70
2023-01-10T20:16:45.433Z,1.93
2023-01-10T20:19:17.472Z,2.43
2023-01-10T20:21:46.960Z,1.73
2023-01-10T20:24:19.436Z,1.70
2023-01-10T20:26:49.815Z,1.77
2023-01-10T20:29:21.619Z,2.20
2023-01-10T20:31:53.278Z,2.27
2023-01-10T20:34:23.168Z,2.20
2023-01-10T20:36:54.321Z,2.20
2023-01-10T20:39:28.326Z,2.17
2023-01-10T20:41:56.919Z,2.00
2023-01-10T20:44:28.432Z,2.40
2023-01-10T20:46:57.513Z,1.90
2023-01-10T20:49:26.474Z,2.73
2023-01-10T20:51:56.733Z,1.80
2023-01-10T20:54:26.925Z,2.80
2023-01-10T20:56:56.517Z,2.30
2023-01-10T20:59:27.346Z,2.20
2023-01-10T21:01:56.243Z,2.30
2023-01-10T21:04:25.510Z,2.30
2023-01-10T21:06:56.013Z,1.70
2023-01-10T21:09:26.258Z,2.63
2023-01-10T21:12:10.404Z,2.40
2023-01-10T21:14:47.956Z,2.10
2023-01-10T21:17:17.815Z,2.00
2023-01-10T21:19:48.645Z,2.10
2023-01-10T21:22:17.123Z,2.27
2023-01-10T21:24:50.231Z,1.80
2023-01-10T21:27:18.573Z,2.10
2023-01-10T21:29:48.273Z,2.43
2023-01-10T21:32:16.841Z,2.17
2023-01-10T21:34:45.447Z,2.00
2023-01-10T21:37:14.196Z,2.57
2023-01-10T21:39:45.673Z,1.80
2023-01-10T21:42:34.374Z,1.80
2023-01-10T21:45:04.895Z,1.90
2023-01-10T21:47:34.734Z,1.73
2023-01-10T21:50:22.384Z,2.40
2023-01-10T21:52:53.314Z,2.30
2023-01-10T21:55:22.097Z,2.67
2023-01-10T21:57:51.950Z,2.10
2023-01-10T22:00:21.575Z,2.20
2023-01-10T22:02:50.285Z,1.93
2023-01-10T22:05:18.946Z,2.20
2023-01-10T22:07:48.463Z,1.70
2023-01-10T22:10:17.355Z,2.17
2023-01-10T22:12:45.844Z,1.80
2023-01-10T22:15:15.960Z,2.60
2023-01-10T22:17:44.313Z,2.03
2023-01-10T22:20:13.524Z,1.60
2023-01-10T22:22:42.105Z,1.53
2023-01-10T22:25:11.003Z,1.90
2023-01-10T22:27:44.869Z,1.90
2023-01-10T22:30:23.022Z,2.13
2023-01-10T22:32:57.359Z,1.77
2023-01-10T22:35:27.572Z,2.10
2023-01-10T22:37:57.056Z,1.90
2023-01-10T22:40:28.050Z,2.07
2023-01-10T22:43:01.087Z,2.63
2023-01-10T22:45:31.907Z,2.57
2023-01-10T22:48:00.601Z,1.93
2023-01-10T22:50:29.387Z,2.67
2023-01-10T22:53:08.198Z,2.20
2023-01-10T22:55:36.893Z,2.13
2023-01-10T22:58:05.681Z,2.00
2023-01-10T23:00:35.672Z,2.10
2023-01-10T23:03:10.709Z,2.10
2023-01-10T23:05:39.347Z,1.60
2023-01-10T23:08:07.793Z,2.53
2023-01-10T23:10:36.288Z,1.93
2023-01-10T23:13:09.020Z,2.40
2023-01-10T23:15:39.047Z,2.17
2023-01-10T23:18:07.670Z,2.53
2023-01-10T23:20:36.201Z,2.00
2023-01-10T23:23:05.082Z,2.50
2023-01-10T23:25:33.534Z,2.30
2023-01-10T23:28:02.014Z,2.23
2023-01-10T23:30:30.500Z,1.80
2023-01-10T23:33:01.874Z,2.00
2023-01-10T23:35:30.313Z,2.33
2023-01-10T23:38:01.207Z,2.30
2023-01-10T23:40:30.257Z,1.73
2023-01-10T23:42:58.824Z,2.30
2023-01-10T23:45:27.217Z,2.50
2023-01-10T23:47:55.761Z,2.10
2023-01-10T23:50:26.634Z,2.10
2023-01-10T23:52:55.076Z,2.33
2023-01-10T23:55:28.102Z,1.70
2023-01-10T23:57:58.576Z,2.53
